createdAt,value
2023-04-09T00:00:16.537Z,20.80
2023-04-09T00:02:43.726Z,20.73
2023-04-09T00:05:10.603Z,20.85
2023-04-09T00:07:39.340Z,19.42
2023-04-09T00:10:06.895Z,19.67
2023-04-09T00:12:33.556Z,20.30
2023-04-09T00:15:00.218Z,19.70
2023-04-09T00:17:26.873Z,20.45
2023-04-09T00:19:53.558Z,20.20
2023-04-09T00:22:20.320Z,20.30
2023-04-09T00:24:46.931Z,20.10
2023-04-09T00:27:14.083Z,19.83
2023-04-09T00:29:41.064Z,21.05
2023-04-09T00:32:07.952Z,20.95
2023-04-09T00:34:34.752Z,20.77
2023-04-09T00:37:01.456Z,19.75
2023-04-09T00:39:28.162Z,19.50
2023-04-09T00:42:04.440Z,20.33
2023-04-09T00:44:31.198Z,21.00
2023-04-09T00:46:59.101Z,21.02
2023-04-09T00:49:26.574Z,20.02
2023-04-09T00:51:53.955Z,22.02
2023-04-09T00:54:20.699Z,19.77
2023-04-09T00:56:47.785Z,21.40
2023-04-09T00:59:15.108Z,22.00
2023-04-09T01:01:41.822Z,20.95
2023-04-09T01:04:08.733Z,21.42
2023-04-09T01:06:52.838Z,22.10
2023-04-09T01:09:31.119Z,20.60
2023-04-09T01:12:41.200Z,21.77
2023-04-09T01:15:14.165Z,21.63
2023-04-09T01:17:48.691Z,21.05
2023-04-09T01:20:36.132Z,21.55
2023-04-09T01:23:30.184Z,21.58
2023-04-09T01:26:19.371Z,22.75
2023-04-09T01:28:54.735Z,22.33
2023-04-09T01:31:27.118Z,21.65
2023-04-09T01:33:54.981Z,22.48
2023-04-09T01:36:21.849Z,22.83
2023-04-09T01:38:48.851Z,24.83
2023-04-09T01:41:18.436Z,24.27
2023-04-09T01:43:45.950Z,23.60
2023-04-09T01:46:13.175Z,24.05
2023-04-09T01:48:40.306Z,22.85
2023-04-09T01:51:07.035Z,24.45
2023-04-09T01:53:33.636Z,23.52
2023-04-09T01:56:01.212Z,23.42
2023-04-09T01:58:27.985Z,22.98
2023-04-09T02:01:05.458Z,24.00
2023-04-09T02:03:37.461Z,22.88
2023-04-09T02:06:09.592Z,24.63
2023-04-09T02:08:36.884Z,24.13
2023-04-09T02:11:05.539Z,24.67
2023-04-09T02:13:34.708Z,24.30
2023-04-09T02:16:02.593Z,24.50
2023-04-09T02:18:31.022Z,23.77
2023-04-09T02:20:58.510Z,23.05
2023-04-09T02:23:25.413Z,24.65
2023-04-09T02:25:53.326Z,24.42
2023-04-09T02:28:20.026Z,22.85
2023-04-09T02:30:46.710Z,24.02
2023-04-09T02:33:13.415Z,24.23
2023-04-09T02:35:40.593Z,23.23
2023-04-09T02:38:13.583Z,22.73
2023-04-09T02:40:41.281Z,24.58
2023-04-09T02:43:08.577Z,22.50
2023-04-09T02:45:35.717Z,24.63
2023-04-09T02:48:02.538Z,23.23
2023-04-09T02:50:34.207Z,23.52
2023-04-09T02:53:00.992Z,23.73
2023-04-09T02:55:27.662Z,23.77
2023-04-09T02:57:54.473Z,23.73
2023-04-09T03:00:21.202Z,24.55
2023-04-09T03:02:48.053Z,23.50
2023-04-09T03:05:14.804Z,24.17
2023-04-09T03:07:41.541Z,25.05
2023-04-09T03:10:08.508Z,22.67
2023-04-09T03:12:35.786Z,23.83
2023-04-09T03:15:02.448Z,22.83
2023-04-09T03:17:32.017Z,23.92
2023-04-09T03:19:59.192Z,24.35
2023-04-09T03:22:37.785Z,22.85
2023-04-09T03:25:14.734Z,23.83
2023-04-09T03:27:41.482Z,25.77
2023-04-09T03:30:11.023Z,25.95
2023-04-09T03:32:43.453Z,27.35
2023-04-09T03:35:12.693Z,25.67
2023-04-09T03:37:41.114Z,25.45
2023-04-09T03:40:14.695Z,25.88
2023-04-09T03:42:43.163Z,28.50
2023-04-09T03:45:11.967Z,27.95
2023-04-09T03:47:43.130Z,28.27
2023-04-09T03:50:10.348Z,28.17
2023-04-09T03:52:46.454Z,26.35
2023-04-09T03:55:13.195Z,29.92
2023-04-09T03:57:39.836Z,27.80
2023-04-09T04:00:11.032Z,28.67
2023-04-09T04:02:56.352Z,27.48
2023-04-09T04:05:43.238Z,28.75
2023-04-09T04:08:13.892Z,26.38
2023-04-09T04:10:40.866Z,27.80
2023-04-09T04:13:08.732Z,28.33
2023-04-09T04:15:50.876Z,26.80
2023-04-09T04:18:21.948Z,26.95
2023-04-09T04:20:51.233Z,26.60
2023-04-09T04:23:17.956Z,27.02
2023-04-09T04:26:00.609Z,25.25
2023-04-09T04:28:32.368Z,26.50
2023-04-09T04:31:00.038Z,26.40
2023-04-09T04:33:29.171Z,28.38
2023-04-09T04:36:07.661Z,26.92
2023-04-09T04:38:44.409Z,27.05
2023-04-09T04:41:17.570Z,25.92
2023-04-09T04:43:51.306Z,26.05
2023-04-09T04:46:21.764Z,27.65
2023-04-09T04:48:48.726Z,25.27
2023-04-09T04:51:15.820Z,24.52
2023-04-09T04:53:50.306Z,26.23
2023-04-09T04:56:16.955Z,25.50
2023-04-09T04:58:56.963Z,25.65
2023-04-09T05:01:24.632Z,25.63
2023-04-09T05:03:52.472Z,26.25
2023-04-09T05:06:32.242Z,26.65
2023-04-09T05:09:01.568Z,27.98
2023-04-09T05:11:36.515Z,27.33
2023-04-09T05:14:06.314Z,30.50
2023-04-09T05:16:33.329Z,29.55
2023-04-09T05:19:04.829Z,31.45
2023-04-09T05:21:32.034Z,30.20
2023-04-09T05:24:00.476Z,31.50
2023-04-09T05:26:31.305Z,31.30
2023-04-09T05:28:58.791Z,32.35
2023-04-09T05:31:26.184Z,32.25
2023-04-09T05:33:57.715Z,31.63
2023-04-09T05:36:33.883Z,32.10
2023-04-09T05:39:01.554Z,29.05
2023-04-09T05:41:29.923Z,33.50
2023-04-09T05:44:18.268Z,30.90
2023-04-09T05:46:45.160Z,30.85
2023-04-09T05:49:16.160Z,33.22
2023-04-09T05:51:45.140Z,33.35
2023-04-09T05:54:11.886Z,31.52
2023-04-09T05:56:38.574Z,33.25
2023-04-09T05:59:05.696Z,30.67
2023-04-09T06:01:33.060Z,30.58
2023-04-09T06:04:00.190Z,30.50
2023-04-09T06:06:30.059Z,31.75
2023-04-09T06:08:56.700Z,27.23
2023-04-09T06:11:23.363Z,28.20
2023-04-09T06:13:50.120Z,27.63
2023-04-09T06:16:17.684Z,27.75
2023-04-09T06:18:46.694Z,28.65
2023-04-09T06:21:16.203Z,27.08
2023-04-09T06:23:43.263Z,27.08
2023-04-09T06:26:09.906Z,27.65
2023-04-09T06:28:36.591Z,28.98
2023-04-09T06:31:03.256Z,27.08
2023-04-09T06:33:29.972Z,27.73
2023-04-09T06:35:56.739Z,26.45
2023-04-09T06:38:23.403Z,29.95
2023-04-09T06:40:50.387Z,24.83
2023-04-09T06:43:17.159Z,27.08
2023-04-09T06:45:49.049Z,25.77
2023-04-09T06:48:15.726Z,27.52
2023-04-09T06:50:42.364Z,25.92
2023-04-09T06:53:09.082Z,27.60
2023-04-09T06:55:35.718Z,24.33
2023-04-09T06:58:02.819Z,26.92
2023-04-09T07:00:29.622Z,27.80
2023-04-09T07:02:56.863Z,28.67
2023-04-09T07:05:24.098Z,29.27
2023-04-09T07:07:50.775Z,26.30
2023-04-09T07:10:17.534Z,26.00
2023-04-09T07:12:44.180Z,27.50
2023-04-09T07:15:10.825Z,25.23
2023-04-09T07:17:37.549Z,25.25
2023-04-09T07:20:04.822Z,25.15
2023-04-09T07:22:31.488Z,26.23
2023-04-09T07:24:58.212Z,24.15
2023-04-09T07:27:26.486Z,24.50
2023-04-09T07:29:57.814Z,24.13
2023-04-09T07:32:25.500Z,22.80
2023-04-09T07:34:52.998Z,20.95
2023-04-09T07:37:20.746Z,21.52
2023-04-09T07:39:48.094Z,19.58
2023-04-09T07:42:14.840Z,17.48
2023-04-09T07:44:41.543Z,18.00
2023-04-09T07:47:08.764Z,18.75
2023-04-09T07:49:37.349Z,16.08
2023-04-09T07:52:04.940Z,17.35
2023-04-09T07:54:31.938Z,16.70
2023-04-09T07:56:59.005Z,16.42
2023-04-09T07:59:26.087Z,15.68
2023-04-09T08:01:52.775Z,15.05
2023-04-09T08:04:19.674Z,15.77
2023-04-09T08:06:50.127Z,14.82
2023-04-09T08:09:20.780Z,14.60
2023-04-09T08:11:48.787Z,15.35
2023-04-09T08:14:16.564Z,14.23
2023-04-09T08:16:44.723Z,15.32
2023-04-09T08:19:11.629Z,15.43
2023-04-09T08:21:39.343Z,15.48
2023-04-09T08:24:07.210Z,14.63
2023-04-09T08:26:33.865Z,14.98
2023-04-09T08:29:00.929Z,14.30
2023-04-09T08:31:27.707Z,14.05
2023-04-09T08:33:54.445Z,14.25
2023-04-09T08:36:21.941Z,14.95
2023-04-09T08:38:49.334Z,13.75
2023-04-09T08:41:20.342Z,14.68
2023-04-09T08:43:57.666Z,13.38
2023-04-09T08:46:26.594Z,13.85
2023-04-09T08:48:54.096Z,13.38
2023-04-09T08:51:22.865Z,13.45
2023-04-09T08:53:54.577Z,14.48
2023-04-09T08:56:24.098Z,11.00
2023-04-09T08:58:51.345Z,10.85
2023-04-09T09:01:20.274Z,11.45
2023-04-09T09:04:01.603Z,11.23
2023-04-09T09:06:31.169Z,10.85
2023-04-09T09:09:10.964Z,10.18
2023-04-09T09:11:39.960Z,10.27
2023-04-09T09:14:13.592Z,10.13
2023-04-09T09:17:03.576Z,9.43
2023-04-09T09:19:33.470Z,10.90
2023-04-09T09:22:01.739Z,11.38
2023-04-09T09:24:28.738Z,10.93
2023-04-09T09:26:55.783Z,10.45
2023-04-09T09:29:22.458Z,10.60
2023-04-09T09:31:51.060Z,11.27
2023-04-09T09:34:18.654Z,8.65
2023-04-09T09:36:45.903Z,8.38
2023-04-09T09:39:13.316Z,7.00
2023-04-09T09:41:41.245Z,7.32
2023-04-09T09:44:11.587Z,6.72
2023-04-09T09:46:40.629Z,7.03
2023-04-09T09:49:08.136Z,7.20
2023-04-09T09:51:37.544Z,7.22
2023-04-09T09:54:04.426Z,7.85
2023-04-09T09:56:33.179Z,7.75
2023-04-09T09:59:22.148Z,9.20
2023-04-09T10:01:51.661Z,8.68
2023-04-09T10:04:20.695Z,8.10
2023-04-09T10:06:47.716Z,8.35
2023-04-09T10:09:14.563Z,7.93
2023-04-09T10:11:45.667Z,8.77
2023-04-09T10:14:13.833Z,9.43
2023-04-09T10:16:40.989Z,8.95
2023-04-09T10:19:13.120Z,9.23
2023-04-09T10:21:48.496Z,8.68
2023-04-09T10:24:16.107Z,8.00
2023-04-09T10:26:47.201Z,8.63
2023-04-09T10:29:16.962Z,8.05
2023-04-09T10:31:50.510Z,7.40
2023-04-09T10:34:19.097Z,8.48
2023-04-09T10:36:51.549Z,9.02
2023-04-09T10:39:18.408Z,7.82
2023-04-09T10:41:46.749Z,7.20
2023-04-09T10:44:23.624Z,7.60
2023-04-09T10:46:53.383Z,6.53
2023-04-09T10:49:22.265Z,7.75
2023-04-09T10:52:12.100Z,7.85
2023-04-09T10:54:46.222Z,7.78
2023-04-09T10:57:18.354Z,7.30
2023-04-09T10:59:52.837Z,6.75
2023-04-09T11:02:31.944Z,7.22
2023-04-09T11:05:17.680Z,6.95
2023-04-09T11:07:47.258Z,6.80
2023-04-09T11:10:13.900Z,6.78
2023-04-09T11:12:40.680Z,7.28
2023-04-09T11:15:16.246Z,6.93
2023-04-09T11:17:43.296Z,6.40
2023-04-09T11:20:10.913Z,6.72
2023-04-09T11:22:38.228Z,6.57
2023-04-09T11:25:05.469Z,7.05
2023-04-09T11:27:37.610Z,6.97
2023-04-09T11:30:04.612Z,6.80
2023-04-09T11:32:33.951Z,6.25
2023-04-09T11:35:09.029Z,6.50
2023-04-09T11:37:36.854Z,7.15
2023-04-09T11:40:03.771Z,7.25
2023-04-09T11:42:35.085Z,6.75
2023-04-09T11:45:02.006Z,6.75
2023-04-09T11:47:32.013Z,6.88
2023-04-09T11:49:59.022Z,7.22
2023-04-09T11:52:25.693Z,6.43
2023-04-09T11:54:52.364Z,7.20
2023-04-09T11:57:19.019Z,7.40
2023-04-09T11:59:45.754Z,8.02
2023-04-09T12:02:12.447Z,7.05
2023-04-09T12:04:49.326Z,6.95
2023-04-09T12:07:17.392Z,6.60
2023-04-09T12:09:53.850Z,7.68
2023-04-09T12:12:20.749Z,7.40
2023-04-09T12:14:47.756Z,7.22
2023-04-09T12:17:14.588Z,7.10
2023-04-09T12:19:41.414Z,7.50
2023-04-09T12:22:08.102Z,7.28
2023-04-09T12:24:34.825Z,8.13
2023-04-09T12:27:01.681Z,7.63
2023-04-09T12:29:29.868Z,6.63
2023-04-09T12:31:56.663Z,6.90
2023-04-09T12:34:23.404Z,6.70
2023-04-09T12:36:50.050Z,6.93
2023-04-09T12:39:16.653Z,7.00
2023-04-09T12:41:43.348Z,6.88
2023-04-09T12:44:10.063Z,7.05
2023-04-09T12:46:37.191Z,6.75
2023-04-09T12:49:04.435Z,7.13
2023-04-09T12:51:31.196Z,6.55
2023-04-09T12:53:57.874Z,7.43
2023-04-09T12:56:24.833Z,7.18
2023-04-09T12:58:51.891Z,6.82
2023-04-09T13:01:18.761Z,6.75
2023-04-09T13:03:45.791Z,7.25
2023-04-09T13:06:13.435Z,8.57
2023-04-09T13:08:40.284Z,7.85
2023-04-09T13:11:06.956Z,7.43
2023-04-09T13:13:33.654Z,7.35
2023-04-09T13:16:00.531Z,6.97
2023-04-09T13:18:27.174Z,6.53
2023-04-09T13:20:53.827Z,6.13
2023-04-09T13:23:20.779Z,6.13
2023-04-09T13:25:47.424Z,6.20
2023-04-09T13:28:14.159Z,6.00
2023-04-09T13:30:40.818Z,6.03
2023-04-09T13:33:07.555Z,6.45
2023-04-09T13:35:34.461Z,5.63
2023-04-09T13:38:01.220Z,6.07
2023-04-09T13:40:27.920Z,6.10
2023-04-09T13:42:54.642Z,6.45
2023-04-09T13:45:23.803Z,6.35
2023-04-09T13:47:52.531Z,6.93
2023-04-09T13:50:19.263Z,6.72
2023-04-09T13:52:45.985Z,7.00
2023-04-09T13:55:14.748Z,6.22
2023-04-09T13:57:41.388Z,6.68
2023-04-09T14:00:08.742Z,6.53
2023-04-09T14:02:35.523Z,6.80
2023-04-09T14:05:03.943Z,6.82
2023-04-09T14:07:30.918Z,6.35
2023-04-09T14:09:57.702Z,6.00
2023-04-09T14:12:24.355Z,6.68
2023-04-09T14:14:51.618Z,6.97
2023-04-09T14:17:18.280Z,6.55
2023-04-09T14:19:44.935Z,6.07
2023-04-09T14:22:11.667Z,6.88
2023-04-09T14:24:39.739Z,5.78
2023-04-09T14:27:07.697Z,5.80
2023-04-09T14:29:34.838Z,6.40
2023-04-09T14:32:01.989Z,6.47
2023-04-09T14:34:31.224Z,7.60
2023-04-09T14:36:58.242Z,8.05
2023-04-09T14:39:25.124Z,5.90
2023-04-09T14:41:52.151Z,6.32
2023-04-09T14:44:19.048Z,5.97
2023-04-09T14:46:45.910Z,5.65
2023-04-09T14:49:12.831Z,5.95
2023-04-09T14:51:39.563Z,5.82
2023-04-09T14:54:06.266Z,6.05
2023-04-09T14:56:32.998Z,6.13
2023-04-09T14:59:00.020Z,6.65
2023-04-09T15:01:27.611Z,5.68
2023-04-09T15:03:54.789Z,6.03
2023-04-09T15:06:21.690Z,5.65
2023-04-09T15:08:48.706Z,6.03
2023-04-09T15:11:16.640Z,5.88
2023-04-09T15:13:43.602Z,5.88
2023-04-09T15:16:10.398Z,6.30
2023-04-09T15:18:37.472Z,7.20
2023-04-09T15:21:04.364Z,5.75
2023-04-09T15:23:31.160Z,5.50
2023-04-09T15:25:57.836Z,5.32
2023-04-09T15:28:25.873Z,5.63
2023-04-09T15:30:54.860Z,5.50
2023-04-09T15:33:21.521Z,5.45
2023-04-09T15:35:48.264Z,5.68
2023-04-09T15:38:14.981Z,5.72
2023-04-09T15:40:44.429Z,5.55
2023-04-09T15:43:11.287Z,5.63
2023-04-09T15:45:37.979Z,5.93
2023-04-09T15:48:05.453Z,6.13
2023-04-09T15:50:32.517Z,5.75
2023-04-09T15:52:59.285Z,5.63
2023-04-09T15:55:28.758Z,5.47
2023-04-09T15:57:56.637Z,5.78
2023-04-09T16:00:24.567Z,5.95
2023-04-09T16:02:53.033Z,5.43
2023-04-09T16:05:22.414Z,6.13
2023-04-09T16:07:52.350Z,4.90
2023-04-09T16:10:19.373Z,5.32
2023-04-09T16:12:54.849Z,5.53
2023-04-09T16:15:21.701Z,5.72
2023-04-09T16:17:48.545Z,5.63
2023-04-09T16:20:15.467Z,5.82
2023-04-09T16:22:42.282Z,5.35
2023-04-09T16:25:09.835Z,5.10
2023-04-09T16:27:36.796Z,5.82
2023-04-09T16:30:06.009Z,5.57
2023-04-09T16:32:33.594Z,6.32
2023-04-09T16:35:01.684Z,5.57
2023-04-09T16:37:42.232Z,6.05
2023-04-09T16:40:12.136Z,6.43
2023-04-09T16:42:38.902Z,5.80
2023-04-09T16:45:06.356Z,6.10
2023-04-09T16:47:33.220Z,6.68
2023-04-09T16:50:00.450Z,7.07
2023-04-09T16:52:40.044Z,5.85
2023-04-09T16:55:08.413Z,6.50
2023-04-09T16:57:35.804Z,6.95
2023-04-09T17:00:05.234Z,7.28
2023-04-09T17:02:32.927Z,6.43
2023-04-09T17:05:00.801Z,7.13
2023-04-09T17:07:30.173Z,6.10
2023-04-09T17:09:57.175Z,6.53
2023-04-09T17:12:24.582Z,6.68
2023-04-09T17:14:51.646Z,6.22
2023-04-09T17:17:18.899Z,6.30
2023-04-09T17:19:45.806Z,5.55
2023-04-09T17:22:14.153Z,6.72
2023-04-09T17:24:40.786Z,5.70
2023-04-09T17:27:07.838Z,5.75
2023-04-09T17:29:34.564Z,6.13
2023-04-09T17:32:01.336Z,6.45
2023-04-09T17:34:33.480Z,5.88
2023-04-09T17:37:02.897Z,5.20
2023-04-09T17:39:29.763Z,5.68
2023-04-09T17:41:58.099Z,5.85
2023-04-09T17:44:27.553Z,6.63
2023-04-09T17:46:54.394Z,7.10
2023-04-09T17:49:22.469Z,6.20
2023-04-09T17:51:49.261Z,7.43
2023-04-09T17:54:16.169Z,6.95
2023-04-09T17:56:42.948Z,7.78
2023-04-09T17:59:09.649Z,8.30
2023-04-09T18:01:36.496Z,7.63
2023-04-09T18:04:03.482Z,8.07
2023-04-09T18:06:31.467Z,7.75
2023-04-09T18:08:58.120Z,6.60
2023-04-09T18:11:25.009Z,6.22
2023-04-09T18:13:53.457Z,7.20
2023-04-09T18:16:23.167Z,7.18
2023-04-09T18:18:50.076Z,7.13
2023-04-09T18:21:17.942Z,7.13
2023-04-09T18:23:44.627Z,6.85
2023-04-09T18:26:11.481Z,6.50
2023-04-09T18:28:38.138Z,6.72
2023-04-09T18:31:05.012Z,6.40
2023-04-09T18:33:31.732Z,6.75
2023-04-09T18:36:02.064Z,6.63
2023-04-09T18:38:29.458Z,9.25
2023-04-09T18:40:56.871Z,8.10
2023-04-09T18:43:24.739Z,7.53
2023-04-09T18:45:52.437Z,6.68
2023-04-09T18:48:19.259Z,6.68
2023-04-09T18:50:46.266Z,6.47
2023-04-09T18:53:13.185Z,7.50
2023-04-09T18:55:39.950Z,6.85
2023-04-09T18:58:13.007Z,9.48
2023-04-09T19:00:40.147Z,9.32
2023-04-09T19:03:07.341Z,8.63
2023-04-09T19:05:34.918Z,8.35
2023-04-09T19:08:04.298Z,7.50
2023-04-09T19:10:33.438Z,7.72
2023-04-09T19:13:08.630Z,7.15
2023-04-09T19:15:35.842Z,6.50
2023-04-09T19:18:03.293Z,8.07
2023-04-09T19:20:33.223Z,8.25
2023-04-09T19:23:01.105Z,7.65
2023-04-09T19:25:29.336Z,8.13
2023-04-09T19:27:57.289Z,8.90
2023-04-09T19:30:26.972Z,10.27
2023-04-09T19:32:54.009Z,9.77
2023-04-09T19:35:21.080Z,11.02
2023-04-09T19:37:49.610Z,10.55
2023-04-09T19:40:18.352Z,11.07
2023-04-09T19:42:45.189Z,11.38
2023-04-09T19:45:12.379Z,12.63
2023-04-09T19:47:39.206Z,12.98
2023-04-09T19:50:06.394Z,13.50
2023-04-09T19:52:38.360Z,13.30
2023-04-09T19:55:05.808Z,13.00
2023-04-09T19:57:34.325Z,14.00
2023-04-09T20:00:01.081Z,15.38
2023-04-09T20:02:28.177Z,16.63
2023-04-09T20:05:04.202Z,16.75
2023-04-09T20:07:31.867Z,16.67
2023-04-09T20:10:01.044Z,17.35
2023-04-09T20:12:29.495Z,16.55
2023-04-09T20:14:57.955Z,19.23
2023-04-09T20:17:25.033Z,19.83
2023-04-09T20:19:51.837Z,21.10
2023-04-09T20:22:18.846Z,21.92
2023-04-09T20:24:54.946Z,23.20
2023-04-09T20:27:22.671Z,24.75
2023-04-09T20:29:49.536Z,25.50
2023-04-09T20:32:16.252Z,25.48
2023-04-09T20:34:43.503Z,25.63
2023-04-09T20:37:10.434Z,27.83
2023-04-09T20:39:37.423Z,25.83
2023-04-09T20:42:05.506Z,27.13
2023-04-09T20:44:32.976Z,27.23
2023-04-09T20:46:59.731Z,28.30
2023-04-09T20:49:26.460Z,27.00
2023-04-09T20:51:53.281Z,27.92
2023-04-09T20:54:22.450Z,31.67
2023-04-09T20:56:50.194Z,30.42
2023-04-09T20:59:22.072Z,30.02
2023-04-09T21:01:49.679Z,32.17
2023-04-09T21:04:17.465Z,34.08
2023-04-09T21:06:44.363Z,34.08
2023-04-09T21:09:11.086Z,34.50
2023-04-09T21:11:37.773Z,34.75
2023-04-09T21:14:06.873Z,38.00
2023-04-09T21:16:34.062Z,39.42
2023-04-09T21:19:07.130Z,42.28
2023-04-09T21:21:34.559Z,44.92
2023-04-09T21:24:02.465Z,48.83
2023-04-09T21:26:35.994Z,55.17
2023-04-09T21:29:15.753Z,56.35
2023-04-09T21:31:42.451Z,52.50
2023-04-09T21:34:10.168Z,48.30
2023-04-09T21:36:39.476Z,48.03
2023-04-09T21:39:07.148Z,50.33
2023-04-09T21:41:35.435Z,50.78
2023-04-09T21:44:08.302Z,52.97
2023-04-09T21:46:37.080Z,49.38
2023-04-09T21:49:04.490Z,48.80
2023-04-09T21:51:32.195Z,51.28
2023-04-09T21:54:06.288Z,52.50
2023-04-09T21:56:33.765Z,56.72
2023-04-09T21:59:01.258Z,55.13
2023-04-09T22:01:30.446Z,54.88
2023-04-09T22:04:02.673Z,53.42
2023-04-09T22:06:29.613Z,55.78
2023-04-09T22:08:58.294Z,58.47
2023-04-09T22:11:29.752Z,59.58
2023-04-09T22:13:57.444Z,61.60
2023-04-09T22:16:24.992Z,66.57
2023-04-09T22:18:52.576Z,66.93
2023-04-09T22:21:19.733Z,65.55
2023-04-09T22:23:46.609Z,65.35
2023-04-09T22:26:13.341Z,64.30
2023-04-09T22:28:40.089Z,66.07
2023-04-09T22:31:07.280Z,66.88
2023-04-09T22:33:34.115Z,65.35
2023-04-09T22:36:00.893Z,63.92
2023-04-09T22:38:27.745Z,64.15
2023-04-09T22:40:54.626Z,64.38
2023-04-09T22:43:21.456Z,66.70
2023-04-09T22:45:55.000Z,64.30
2023-04-09T22:48:23.253Z,65.93
2023-04-09T22:50:51.193Z,67.90
2023-04-09T22:53:20.777Z,64.95
2023-04-09T22:55:51.644Z,65.25
2023-04-09T22:58:19.200Z,69.50
2023-04-09T23:00:47.128Z,67.38
2023-04-09T23:03:14.086Z,70.00
2023-04-09T23:05:41.161Z,66.68
2023-04-09T23:08:07.820Z,67.45
2023-04-09T23:10:35.075Z,69.18
2023-04-09T23:13:02.176Z,70.07
2023-04-09T23:15:28.902Z,68.38
2023-04-09T23:17:56.426Z,67.60
2023-04-09T23:20:25.974Z,68.20
2023-04-09T23:22:52.770Z,72.22
2023-04-09T23:25:20.201Z,67.95
2023-04-09T23:27:46.804Z,69.22
2023-04-09T23:30:17.042Z,70.45
2023-04-09T23:32:47.877Z,78.57
2023-04-09T23:35:15.469Z,82.13
2023-04-09T23:37:43.367Z,80.65
2023-04-09T23:40:11.068Z,82.75
2023-04-09T23:42:37.893Z,80.80
2023-04-09T23:45:05.758Z,81.95
2023-04-09T23:47:35.529Z,83.47
2023-04-09T23:50:05.195Z,81.57
2023-04-09T23:52:34.278Z,82.45
2023-04-09T23:55:01.196Z,81.53
2023-04-09T23:57:28.639Z,83.10
2023-04-09T23:59:55.415Z,83.53
